Kotzebue, AK

8:16 AM AKDT on May 28, 2015 (GMT -0800)
Wien Memorial | | Change Station
CLOSE
Current Station
Airport
Location: Kotzebue,
Elevation: 16 ft
Nearby Weather Stations

Elev 16 ft 66.88 °N, 162.60 °W | Updated 10 minutes ago

Mist
Mist
42 °F
Feels Like 40 °F
N
4
Wind Variable Wind from West

Today
High -- | Low -- °F
--% Chance of Precip.
Yesterday
High -- | Low -- °F
Precip. -- in
3:52 AM 1:48 AM
Waxing Gibbous, 77% visible
Pressure 30.26 in
Visibility 1.0 miles
Clouds
Windchill 40 °F
Dew Point 42 °F
Humidity 100%
Rainfall 0.00 in
Snow Depth Not available.
UV Not available.
Pollen Not available.
Air Quality Not available.
Flu Activity Local Activity
SPECI PAOT 281606Z 26003KT 1SM R09/3500VP6000FT BR VV001 06/06 A3026 RMK AO2 T00560056 $

More Conditions Fewer Conditions

Pressure 30.26 in
Visibility 1.0 miles
Clouds
Windchill 40 °F
Dew Point 42 °F
Humidity 100%
Rainfall 0.00 in
Snow Depth Not available.
UV Not available.
Pollen Not available.
Air Quality Not available.
Flu Activity Local Activity
SPECI PAOT 281606Z 26003KT 1SM R09/3500VP6000FT BR VV001 06/06 A3026 RMK AO2 T00560056 $

More Conditions Fewer Conditions

10-Day Weather Forecast

Almanac

Astronomy

May. 28, 2015 Rise Set
Actual Time
Civil Twilight
Nautical Twilight
Astronomical Twilight
Moon
Length of Visible Light
Length of Day
Tomorrow will be .
, % of the Moon is Illuminated

Today's Extremes

State Highs State Lows

Community

WunderPhotos

Upload Photos

1,825,003 photos uploaded!

WunderBlogs® & News

Nearby

Air Quality

  Air Quality AQ Index Pollutant
Not available.

Snow Depth

Station Depth Elevation

Earthquake Activity

City Distance Mag. Time & Date
Minimum magnitude displayed is 2.5.

Coastal Water Temperatures

Place Temperature

Stations

Nearby Weather Stations

Station Location Temp. Windchill Dew Point Humidity Wind Precip. Elev Updated Type